createdAt,value
2023-03-29T00:00:41.984Z,627.00
2023-03-29T00:01:42.071Z,629.00
2023-03-29T00:02:42.091Z,630.00
2023-03-29T00:03:42.020Z,627.00
2023-03-29T00:04:42.030Z,627.00
2023-03-29T00:05:41.928Z,625.00
2023-03-29T00:06:41.944Z,623.00
2023-03-29T00:07:41.941Z,623.00
2023-03-29T00:08:41.995Z,622.00
2023-03-29T00:09:41.924Z,622.00
2023-03-29T00:10:42.791Z,621.00
2023-03-29T00:11:42.409Z,621.00
2023-03-29T00:12:41.971Z,619.00
2023-03-29T00:13:41.921Z,617.00
2023-03-29T00:14:41.914Z,617.00
2023-03-29T00:15:41.906Z,619.00
2023-03-29T00:16:41.926Z,620.00
2023-03-29T00:17:41.938Z,620.00
2023-03-29T00:18:41.950Z,621.00
2023-03-29T00:19:41.881Z,619.00
2023-03-29T00:20:41.826Z,616.00
2023-03-29T00:21:41.867Z,617.00
2023-03-29T00:22:41.780Z,619.00
2023-03-29T00:23:41.754Z,613.00
2023-03-29T00:24:41.735Z,612.00
2023-03-29T00:25:42.304Z,613.00
2023-03-29T00:26:41.650Z,612.00
2023-03-29T00:27:41.600Z,613.00
2023-03-29T00:28:41.552Z,612.00
2023-03-29T00:29:41.534Z,612.00
2023-03-29T00:30:41.510Z,611.00
2023-03-29T00:31:41.571Z,612.00
2023-03-29T00:32:41.520Z,615.00
2023-03-29T00:33:41.477Z,614.00
2023-03-29T00:34:41.396Z,617.00
2023-03-29T00:35:41.420Z,620.00
2023-03-29T00:36:41.347Z,621.00
2023-03-29T00:37:41.403Z,620.00
2023-03-29T00:38:41.297Z,621.00
2023-03-29T00:39:41.253Z,617.00
2023-03-29T00:40:41.220Z,613.00
2023-03-29T00:41:41.811Z,613.00
2023-03-29T00:42:41.152Z,613.00
2023-03-29T00:43:41.093Z,615.00
2023-03-29T00:44:41.069Z,613.00
2023-03-29T00:45:41.041Z,614.00
2023-03-29T00:46:41.061Z,615.00
2023-03-29T00:47:41.098Z,615.00
2023-03-29T00:48:40.952Z,615.00
2023-03-29T00:49:40.912Z,613.00
2023-03-29T00:50:40.893Z,613.00
2023-03-29T00:51:40.856Z,613.00
2023-03-29T00:52:40.829Z,613.00
2023-03-29T00:53:40.809Z,613.00
2023-03-29T00:54:40.792Z,615.00
2023-03-29T00:55:40.763Z,613.00
2023-03-29T00:56:40.809Z,609.00
2023-03-29T00:57:40.709Z,613.00
2023-03-29T00:58:40.674Z,612.00
2023-03-29T00:59:40.651Z,613.00
2023-03-29T01:00:40.617Z,613.00
2023-03-29T01:01:40.612Z,615.00
2023-03-29T01:02:40.658Z,614.00
2023-03-29T01:03:40.562Z,616.00
2023-03-29T01:04:40.483Z,617.00
2023-03-29T01:05:40.495Z,618.00
2023-03-29T01:06:40.472Z,621.00
2023-03-29T01:07:40.455Z,620.00
2023-03-29T01:08:40.465Z,617.00
2023-03-29T01:09:40.439Z,619.00
2023-03-29T01:10:40.446Z,621.00
2023-03-29T01:11:40.438Z,622.00
2023-03-29T01:12:40.412Z,620.00
2023-03-29T01:13:40.388Z,619.00
2023-03-29T01:14:40.358Z,621.00
2023-03-29T01:15:40.337Z,617.00
2023-03-29T01:16:40.338Z,613.00
2023-03-29T01:17:40.302Z,613.00
2023-03-29T01:18:40.216Z,612.00
2023-03-29T01:19:40.164Z,611.00
2023-03-29T01:20:40.121Z,611.00
2023-03-29T01:21:40.085Z,612.00
2023-03-29T01:22:40.032Z,616.00
2023-03-29T01:23:40.011Z,615.00
2023-03-29T01:24:39.962Z,615.00
2023-03-29T01:25:39.932Z,613.00
2023-03-29T01:26:39.891Z,614.00
2023-03-29T01:27:40.342Z,613.00
2023-03-29T01:28:39.821Z,611.00
2023-03-29T01:29:39.858Z,611.00
2023-03-29T01:30:39.747Z,610.00
2023-03-29T01:31:39.757Z,613.00
2023-03-29T01:32:39.703Z,615.00
2023-03-29T01:33:39.655Z,614.00
2023-03-29T01:34:39.605Z,613.00
2023-03-29T01:35:39.594Z,614.00
2023-03-29T01:36:39.589Z,612.00
2023-03-29T01:37:39.502Z,614.00
2023-03-29T01:38:39.489Z,614.00
2023-03-29T01:39:39.441Z,614.00
2023-03-29T01:40:39.396Z,613.00
2023-03-29T01:41:39.349Z,611.00
2023-03-29T01:42:39.324Z,610.00
2023-03-29T01:43:39.283Z,608.00
2023-03-29T01:44:39.223Z,608.00
2023-03-29T01:45:39.281Z,610.00
2023-03-29T01:46:39.406Z,611.00
2023-03-29T01:47:39.876Z,613.00
2023-03-29T01:48:39.133Z,614.00
2023-03-29T01:49:39.140Z,615.00
2023-03-29T01:50:39.173Z,616.00
2023-03-29T01:51:39.188Z,614.00
2023-03-29T01:52:39.129Z,611.00
2023-03-29T01:53:39.082Z,610.00
2023-03-29T01:54:39.088Z,613.00
2023-03-29T01:55:39.074Z,612.00
2023-03-29T01:56:39.109Z,610.00
2023-03-29T01:57:39.073Z,612.00
2023-03-29T01:58:39.064Z,613.00
2023-03-29T01:59:39.108Z,611.00
2023-03-29T02:00:39.048Z,611.00
2023-03-29T02:01:39.105Z,610.00
2023-03-29T02:02:39.088Z,609.00
2023-03-29T02:03:39.072Z,612.00
2023-03-29T02:04:39.037Z,614.00
2023-03-29T02:05:39.137Z,611.00
2023-03-29T02:06:39.113Z,608.00
2023-03-29T02:07:39.016Z,609.00
2023-03-29T02:08:39.014Z,607.00
2023-03-29T02:09:39.007Z,608.00
2023-03-29T02:10:39.011Z,610.00
2023-03-29T02:11:39.005Z,610.00
2023-03-29T02:12:39.012Z,611.00
2023-03-29T02:13:38.997Z,613.00
2023-03-29T02:14:38.986Z,613.00
2023-03-29T02:15:39.019Z,612.00
2023-03-29T02:16:38.980Z,610.00
2023-03-29T02:17:39.064Z,604.00
2023-03-29T02:18:38.973Z,602.00
2023-03-29T02:19:38.969Z,603.00
2023-03-29T02:20:39.160Z,602.00
2023-03-29T02:21:38.950Z,600.00
2023-03-29T02:22:38.939Z,602.00
2023-03-29T02:23:38.945Z,603.00
2023-03-29T02:24:38.928Z,603.00
2023-03-29T02:25:38.907Z,600.00
2023-03-29T02:26:38.875Z,599.00
2023-03-29T02:27:38.903Z,601.00
2023-03-29T02:28:38.867Z,603.00
2023-03-29T02:29:38.864Z,603.00
2023-03-29T02:30:38.827Z,604.00
2023-03-29T02:31:38.901Z,605.00
2023-03-29T02:32:38.839Z,603.00
2023-03-29T02:33:38.798Z,602.00
2023-03-29T02:34:38.876Z,602.00
2023-03-29T02:35:38.814Z,602.00
2023-03-29T02:36:39.923Z,601.00
2023-03-29T02:37:38.736Z,600.00
2023-03-29T02:38:38.735Z,599.00
2023-03-29T02:39:38.788Z,599.00
2023-03-29T02:40:38.722Z,599.00
2023-03-29T02:41:38.714Z,600.00
2023-03-29T02:42:38.697Z,602.00
2023-03-29T02:43:38.682Z,602.00
2023-03-29T02:44:38.682Z,602.00
2023-03-29T02:45:38.659Z,601.00
2023-03-29T02:46:38.706Z,601.00
2023-03-29T02:47:38.701Z,602.00
2023-03-29T02:48:38.864Z,602.00
2023-03-29T02:49:38.637Z,603.00
2023-03-29T02:50:38.684Z,602.00
2023-03-29T02:51:38.619Z,600.00
2023-03-29T02:52:38.612Z,599.00
2023-03-29T02:53:38.601Z,599.00
2023-03-29T02:54:38.586Z,599.00
2023-03-29T02:55:38.583Z,598.00
2023-03-29T02:56:38.601Z,596.00
2023-03-29T02:57:38.578Z,598.00
2023-03-29T02:58:38.571Z,600.00
2023-03-29T02:59:38.582Z,600.00
2023-03-29T03:00:38.551Z,601.00
2023-03-29T03:01:38.587Z,603.00
2023-03-29T03:02:38.775Z,602.00
2023-03-29T03:03:38.627Z,601.00
2023-03-29T03:04:38.512Z,601.00
2023-03-29T03:05:38.521Z,601.00
2023-03-29T03:06:38.518Z,601.00
2023-03-29T03:07:38.479Z,602.00
2023-03-29T03:08:38.464Z,602.00
2023-03-29T03:09:38.465Z,603.00
2023-03-29T03:10:38.447Z,603.00
2023-03-29T03:11:38.435Z,601.00
2023-03-29T03:12:38.413Z,599.00
2023-03-29T03:13:38.389Z,600.00
2023-03-29T03:14:38.370Z,599.00
2023-03-29T03:15:38.364Z,599.00
2023-03-29T03:16:38.399Z,599.00
2023-03-29T03:17:38.375Z,599.00
2023-03-29T03:18:38.344Z,600.00
2023-03-29T03:19:38.327Z,602.00
2023-03-29T03:20:38.315Z,598.00
2023-03-29T03:21:38.316Z,596.00
2023-03-29T03:22:38.377Z,597.00
2023-03-29T03:23:38.296Z,593.00
2023-03-29T03:24:38.868Z,592.00
2023-03-29T03:25:38.282Z,593.00
2023-03-29T03:26:38.314Z,594.00
2023-03-29T03:27:38.351Z,597.00
2023-03-29T03:28:38.350Z,595.00
2023-03-29T03:29:38.425Z,596.00
2023-03-29T03:30:38.401Z,597.00
2023-03-29T03:31:38.446Z,597.00
2023-03-29T03:32:38.527Z,597.00
2023-03-29T03:33:38.461Z,596.00
2023-03-29T03:34:38.490Z,595.00
2023-03-29T03:35:38.516Z,593.00
2023-03-29T03:36:38.538Z,595.00
2023-03-29T03:37:38.556Z,596.00
2023-03-29T03:38:38.645Z,595.00
2023-03-29T03:39:38.559Z,596.00
2023-03-29T03:40:38.575Z,595.00
2023-03-29T03:41:38.609Z,593.00
2023-03-29T03:42:38.583Z,593.00
2023-03-29T03:43:38.561Z,594.00
2023-03-29T03:44:38.543Z,597.00
2023-03-29T03:45:38.624Z,598.00
2023-03-29T03:46:38.585Z,598.00
2023-03-29T03:47:38.641Z,597.00
2023-03-29T03:48:38.753Z,598.00
2023-03-29T03:49:38.650Z,597.00
2023-03-29T03:50:38.666Z,598.00
2023-03-29T03:51:38.692Z,596.00
2023-03-29T03:52:38.701Z,597.00
2023-03-29T03:53:38.729Z,600.00
2023-03-29T03:54:38.739Z,597.00
2023-03-29T03:55:38.751Z,591.00
2023-03-29T03:56:39.417Z,592.00
2023-03-29T03:57:38.781Z,593.00
2023-03-29T03:58:38.798Z,593.00
2023-03-29T03:59:38.819Z,594.00
2023-03-29T04:00:38.845Z,591.00
2023-03-29T04:01:38.873Z,591.00
2023-03-29T04:02:38.945Z,593.00
2023-03-29T04:03:38.969Z,591.00
2023-03-29T04:04:38.949Z,592.00
2023-03-29T04:05:38.963Z,593.00
2023-03-29T04:06:40.182Z,595.00
2023-03-29T04:07:39.006Z,595.00
2023-03-29T04:08:39.013Z,594.00
2023-03-29T04:09:39.007Z,594.00
2023-03-29T04:10:38.995Z,594.00
2023-03-29T04:11:39.062Z,595.00
2023-03-29T04:12:38.978Z,596.00
2023-03-29T04:13:38.963Z,596.00
2023-03-29T04:14:38.928Z,594.00
2023-03-29T04:15:38.938Z,597.00
2023-03-29T04:16:38.877Z,597.00
2023-03-29T04:17:39.008Z,599.00
2023-03-29T04:18:38.887Z,600.00
2023-03-29T04:19:38.834Z,598.00
2023-03-29T04:20:38.805Z,599.00
2023-03-29T04:21:38.775Z,600.00
2023-03-29T04:22:38.768Z,600.00
2023-03-29T04:23:38.738Z,601.00
2023-03-29T04:24:38.727Z,601.00
2023-03-29T04:25:38.707Z,603.00
2023-03-29T04:26:38.729Z,604.00
2023-03-29T04:27:38.702Z,604.00
2023-03-29T04:28:38.695Z,605.00
2023-03-29T04:29:38.711Z,604.00
2023-03-29T04:30:38.760Z,603.00
2023-03-29T04:31:38.815Z,600.00
2023-03-29T04:32:38.829Z,597.00
2023-03-29T04:33:38.761Z,595.00
2023-03-29T04:34:38.791Z,592.00
2023-03-29T04:35:38.838Z,592.00
2023-03-29T04:36:38.799Z,593.00
2023-03-29T04:37:38.788Z,594.00
2023-03-29T04:38:38.811Z,594.00
2023-03-29T04:39:38.813Z,594.00
2023-03-29T04:40:38.820Z,596.00
2023-03-29T04:41:38.813Z,595.00
2023-03-29T04:42:38.819Z,596.00
2023-03-29T04:43:40.260Z,597.00
2023-03-29T04:44:38.802Z,598.00
2023-03-29T04:45:38.784Z,598.00
2023-03-29T04:46:38.802Z,596.00
2023-03-29T04:47:38.799Z,598.00
2023-03-29T04:48:38.741Z,597.00
2023-03-29T04:49:38.742Z,595.00
2023-03-29T04:50:38.730Z,594.00
2023-03-29T04:51:38.721Z,596.00
2023-03-29T04:52:38.687Z,592.00
2023-03-29T04:53:38.679Z,593.00
2023-03-29T04:54:38.644Z,590.00
2023-03-29T04:55:38.615Z,590.00
2023-03-29T04:56:38.606Z,588.00
2023-03-29T04:57:38.545Z,589.00
2023-03-29T04:58:38.521Z,591.00
2023-03-29T04:59:38.520Z,593.00
2023-03-29T05:00:38.553Z,593.00
2023-03-29T05:01:38.630Z,593.00
2023-03-29T05:02:38.666Z,593.00
2023-03-29T05:03:38.654Z,594.00
2023-03-29T05:04:38.710Z,595.00
2023-03-29T05:05:38.722Z,595.00
2023-03-29T05:06:38.734Z,591.00
2023-03-29T05:07:38.751Z,592.00
2023-03-29T05:08:38.789Z,591.00
2023-03-29T05:09:38.829Z,590.00
2023-03-29T05:10:38.858Z,590.00
2023-03-29T05:11:38.896Z,592.00
2023-03-29T05:12:38.936Z,591.00
2023-03-29T05:13:38.971Z,591.00
2023-03-29T05:14:38.999Z,589.00
2023-03-29T05:15:40.795Z,586.00
2023-03-29T05:16:39.129Z,586.00
2023-03-29T05:17:39.154Z,587.00
2023-03-29T05:18:39.121Z,590.00
2023-03-29T05:19:39.154Z,589.00
2023-03-29T05:20:39.180Z,590.00
2023-03-29T05:21:39.213Z,590.00
2023-03-29T05:22:39.232Z,593.00
2023-03-29T05:23:39.267Z,618.00
2023-03-29T05:24:39.419Z,647.00
2023-03-29T05:25:39.314Z,661.00
2023-03-29T05:26:39.366Z,670.00
2023-03-29T05:27:39.393Z,741.00
2023-03-29T05:28:39.469Z,784.00
2023-03-29T05:29:39.466Z,827.00
2023-03-29T05:30:39.500Z,838.00
2023-03-29T05:31:39.584Z,791.00
2023-03-29T05:32:40.470Z,791.00
2023-03-29T05:33:39.489Z,764.00
2023-03-29T05:34:39.500Z,747.00
2023-03-29T05:35:39.472Z,762.00
2023-03-29T05:36:39.412Z,846.00
2023-03-29T05:37:39.385Z,928.00
2023-03-29T05:38:39.386Z,965.00
2023-03-29T05:39:39.366Z,978.00
2023-03-29T05:40:39.369Z,987.00
2023-03-29T05:41:39.400Z,1052.00
2023-03-29T05:42:39.409Z,1081.00
2023-03-29T05:43:39.430Z,1103.00
2023-03-29T05:44:39.423Z,1225.00
2023-03-29T05:45:39.468Z,1237.00
2023-03-29T05:46:39.484Z,1251.00
2023-03-29T05:47:39.411Z,1351.00
2023-03-29T05:48:39.372Z,1386.00
2023-03-29T05:49:39.349Z,1418.00
2023-03-29T05:50:39.318Z,1426.00
2023-03-29T05:51:39.289Z,1487.00
2023-03-29T05:52:39.249Z,1480.00
2023-03-29T05:53:39.205Z,1490.00
2023-03-29T05:54:39.159Z,1301.00
2023-03-29T05:55:39.443Z,956.00
2023-03-29T05:56:39.150Z,884.00
2023-03-29T05:57:39.120Z,988.00
2023-03-29T05:58:39.158Z,862.00
2023-03-29T05:59:39.075Z,959.00
2023-03-29T06:00:39.065Z,1101.00
2023-03-29T06:01:39.055Z,1124.00
2023-03-29T06:02:39.107Z,1206.00
2023-03-29T06:03:39.171Z,1233.00
2023-03-29T06:04:39.208Z,1304.00
2023-03-29T06:05:38.972Z,1316.00
2023-03-29T06:06:38.939Z,1338.00
2023-03-29T06:07:38.903Z,1395.00
2023-03-29T06:08:38.838Z,1458.00
2023-03-29T06:09:38.804Z,1505.00
2023-03-29T06:10:38.759Z,1515.00
2023-03-29T06:11:38.704Z,1550.00
2023-03-29T06:12:38.645Z,1587.00
2023-03-29T06:13:38.597Z,1630.00
2023-03-29T06:14:38.569Z,1654.00
2023-03-29T06:15:38.558Z,1673.00
2023-03-29T06:16:40.192Z,1729.00
2023-03-29T06:17:38.540Z,1749.00
2023-03-29T06:18:38.432Z,1788.00
2023-03-29T06:19:38.374Z,1796.00
2023-03-29T06:20:38.308Z,1819.00
2023-03-29T06:21:38.248Z,1843.00
2023-03-29T06:22:38.185Z,1565.00
2023-03-29T06:23:38.113Z,1582.00
2023-03-29T06:24:38.050Z,1477.00
2023-03-29T06:25:37.990Z,1305.00
2023-03-29T06:26:37.933Z,1170.00
2023-03-29T06:27:37.879Z,1164.00
2023-03-29T06:28:37.831Z,1335.00
2023-03-29T06:29:37.775Z,1380.00
2023-03-29T06:30:37.716Z,1352.00
2023-03-29T06:31:37.683Z,1378.00
2023-03-29T06:32:37.655Z,1512.00
2023-03-29T06:33:37.519Z,1521.00
2023-03-29T06:34:38.572Z,1575.00
2023-03-29T06:35:38.054Z,1561.00
2023-03-29T06:36:39.372Z,1558.00
2023-03-29T06:37:38.875Z,1558.00
2023-03-29T06:38:37.427Z,1558.00
2023-03-29T06:39:37.948Z,1621.00
2023-03-29T06:40:38.872Z,1635.00
2023-03-29T06:41:37.357Z,1654.00
2023-03-29T06:42:37.457Z,1669.00
2023-03-29T06:43:37.256Z,1676.00
2023-03-29T06:44:37.195Z,1678.00
2023-03-29T06:45:37.144Z,1709.00
2023-03-29T06:46:37.150Z,1702.00
2023-03-29T06:47:37.106Z,1693.00
2023-03-29T06:48:37.958Z,1695.00
2023-03-29T06:49:36.935Z,1683.00
2023-03-29T06:50:36.903Z,1684.00
2023-03-29T06:51:36.861Z,1703.00
2023-03-29T06:52:36.852Z,1716.00
2023-03-29T06:53:36.801Z,1727.00
2023-03-29T06:54:36.732Z,1731.00
2023-03-29T06:55:36.684Z,1721.00
2023-03-29T06:56:36.959Z,1723.00
2023-03-29T06:57:36.580Z,1704.00
2023-03-29T06:58:36.546Z,1704.00
2023-03-29T06:59:36.482Z,1712.00
2023-03-29T07:00:36.412Z,1707.00
2023-03-29T07:01:36.389Z,1717.00
2023-03-29T07:02:36.296Z,1723.00
2023-03-29T07:03:36.254Z,1729.00
2023-03-29T07:04:38.048Z,1740.00
2023-03-29T07:05:36.126Z,1742.00
2023-03-29T07:06:36.079Z,1733.00
2023-03-29T07:07:36.026Z,1680.00
2023-03-29T07:08:35.993Z,1663.00
2023-03-29T07:09:37.998Z,1685.00
2023-03-29T07:10:35.925Z,1760.00
2023-03-29T07:11:35.891Z,1787.00
2023-03-29T07:12:35.851Z,1803.00
2023-03-29T07:13:35.788Z,1807.00
2023-03-29T07:14:35.756Z,1817.00
2023-03-29T07:15:35.732Z,1773.00
2023-03-29T07:16:35.748Z,1765.00
2023-03-29T07:17:35.656Z,1759.00
2023-03-29T07:18:35.632Z,1800.00
2023-03-29T07:19:35.553Z,1781.00
2023-03-29T07:20:35.503Z,1906.00
2023-03-29T07:21:37.862Z,1606.00
2023-03-29T07:22:35.508Z,1214.00
2023-03-29T07:23:35.480Z,1173.00
2023-03-29T07:24:35.515Z,1175.00
2023-03-29T07:25:35.462Z,1181.00
2023-03-29T07:26:35.436Z,1196.00
2023-03-29T07:27:35.421Z,1211.00
2023-03-29T07:28:35.429Z,1233.00
2023-03-29T07:29:35.433Z,1303.00
2023-03-29T07:30:35.445Z,1283.00
2023-03-29T07:31:35.454Z,1269.00
2023-03-29T07:32:35.549Z,1266.00
2023-03-29T07:33:35.502Z,1276.00
2023-03-29T07:34:35.417Z,1292.00
2023-03-29T07:35:35.417Z,1289.00
2023-03-29T07:36:35.970Z,1287.00
2023-03-29T07:37:35.345Z,1268.00
2023-03-29T07:38:35.317Z,1255.00
2023-03-29T07:39:35.293Z,1264.00
2023-03-29T07:40:35.265Z,1260.00
2023-03-29T07:41:35.235Z,1331.00
2023-03-29T07:42:35.195Z,1361.00
2023-03-29T07:43:35.156Z,1349.00
2023-03-29T07:44:35.122Z,1364.00
2023-03-29T07:45:35.114Z,1381.00
2023-03-29T07:46:35.033Z,1378.00
2023-03-29T07:47:35.027Z,1428.00
2023-03-29T07:48:35.021Z,1395.00
2023-03-29T07:49:34.986Z,1436.00
2023-03-29T07:50:34.862Z,1445.00
2023-03-29T07:51:34.805Z,1463.00
2023-03-29T07:52:34.773Z,1466.00
2023-03-29T07:53:34.738Z,1447.00
2023-03-29T07:54:34.649Z,1415.00
2023-03-29T07:55:34.600Z,1429.00
2023-03-29T07:56:34.576Z,1455.00
2023-03-29T07:57:34.498Z,1471.00
2023-03-29T07:58:34.458Z,1484.00
2023-03-29T07:59:34.420Z,1490.00
2023-03-29T08:00:34.476Z,1476.00
2023-03-29T08:01:34.291Z,1435.00
2023-03-29T08:02:34.363Z,1499.00
2023-03-29T08:03:34.206Z,1500.00
2023-03-29T08:04:34.337Z,1478.00
2023-03-29T08:05:41.147Z,1487.00
2023-03-29T08:06:34.995Z,1491.00
2023-03-29T08:07:33.929Z,1489.00
2023-03-29T08:08:33.869Z,1486.00
2023-03-29T08:09:33.792Z,1484.00
2023-03-29T08:10:33.745Z,1511.00
2023-03-29T08:11:33.680Z,1510.00
2023-03-29T08:12:34.483Z,1526.00
2023-03-29T08:13:33.614Z,1574.00
2023-03-29T08:14:33.472Z,1363.00
2023-03-29T08:15:33.423Z,1137.00
2023-03-29T08:16:33.427Z,1021.00
2023-03-29T08:17:33.347Z,885.00
2023-03-29T08:18:34.837Z,880.00
2023-03-29T08:19:33.218Z,927.00
2023-03-29T08:20:33.164Z,898.00
2023-03-29T08:21:33.132Z,895.00
2023-03-29T08:22:33.119Z,1092.00
2023-03-29T08:23:33.108Z,1097.00
2023-03-29T08:24:33.121Z,1096.00
2023-03-29T08:25:33.129Z,1093.00
2023-03-29T08:26:33.930Z,1155.00
2023-03-29T08:27:33.165Z,1173.00
2023-03-29T08:28:33.175Z,1302.00
2023-03-29T08:29:33.990Z,1351.00
2023-03-29T08:30:33.193Z,1335.00
2023-03-29T08:31:33.154Z,1349.00
2023-03-29T08:32:33.127Z,1445.00
2023-03-29T08:33:33.075Z,1417.00
2023-03-29T08:34:33.038Z,1496.00
2023-03-29T08:35:33.057Z,1489.00
2023-03-29T08:36:32.951Z,1497.00
2023-03-29T08:37:32.963Z,1515.00
2023-03-29T08:38:32.842Z,1545.00
2023-03-29T08:39:32.815Z,1559.00
2023-03-29T08:40:32.776Z,1648.00
2023-03-29T08:41:32.738Z,1658.00
2023-03-29T08:42:32.721Z,1655.00
2023-03-29T08:43:32.693Z,1651.00
2023-03-29T08:44:32.643Z,1758.00
2023-03-29T08:45:32.628Z,1827.00
2023-03-29T08:46:35.351Z,1826.00
2023-03-29T08:47:32.599Z,1838.00
2023-03-29T08:48:33.518Z,1870.00
2023-03-29T08:49:33.000Z,1920.00
2023-03-29T08:50:32.412Z,1972.00
2023-03-29T08:51:33.359Z,1998.00
2023-03-29T08:52:32.348Z,1994.00
2023-03-29T08:53:32.290Z,2016.00
2023-03-29T08:54:32.184Z,2026.00
2023-03-29T08:55:32.120Z,2028.00
2023-03-29T08:56:34.133Z,2043.00
2023-03-29T08:57:32.008Z,2157.00
2023-03-29T08:58:31.946Z,2149.00
2023-03-29T08:59:31.883Z,2169.00
2023-03-29T09:00:31.878Z,2141.00
2023-03-29T09:01:31.957Z,2249.00
2023-03-29T09:02:31.940Z,2286.00
2023-03-29T09:03:31.966Z,2377.00
2023-03-29T09:04:31.834Z,2370.00
2023-03-29T09:05:31.820Z,2376.00
2023-03-29T09:06:31.819Z,2385.00
2023-03-29T09:07:31.794Z,2397.00
2023-03-29T09:08:31.794Z,2398.00
2023-03-29T09:09:31.778Z,2430.00
2023-03-29T09:10:31.755Z,2525.00
2023-03-29T09:11:31.739Z,2528.00
2023-03-29T09:12:31.730Z,2521.00
2023-03-29T09:13:31.802Z,2520.00
2023-03-29T09:14:31.677Z,2533.00
2023-03-29T09:15:31.652Z,2579.00
2023-03-29T09:16:31.719Z,2576.00
2023-03-29T09:17:31.663Z,2593.00
2023-03-29T09:18:31.622Z,2595.00
2023-03-29T09:19:31.584Z,2581.00
2023-03-29T09:20:31.553Z,2556.00
2023-03-29T09:21:32.022Z,2540.00
2023-03-29T09:22:31.529Z,2553.00
2023-03-29T09:23:31.504Z,2559.00
2023-03-29T09:24:31.507Z,2563.00
2023-03-29T09:25:36.247Z,2564.00
2023-03-29T09:26:32.481Z,2556.00
2023-03-29T09:27:31.368Z,2555.00
2023-03-29T09:28:31.290Z,2552.00
2023-03-29T09:29:31.249Z,2546.00
2023-03-29T09:30:31.179Z,2541.00
2023-03-29T09:31:31.160Z,2535.00
2023-03-29T09:32:31.083Z,2537.00
2023-03-29T09:33:30.995Z,2532.00
2023-03-29T09:34:30.967Z,2526.00
2023-03-29T09:35:31.015Z,2522.00
2023-03-29T09:36:30.940Z,2511.00
2023-03-29T09:37:30.934Z,2504.00
2023-03-29T09:38:30.923Z,2499.00
2023-03-29T09:39:30.911Z,2496.00
2023-03-29T09:40:30.878Z,2486.00
2023-03-29T09:41:30.843Z,2476.00
2023-03-29T09:42:30.782Z,2471.00
2023-03-29T09:43:30.731Z,2467.00
2023-03-29T09:44:31.692Z,2467.00
2023-03-29T09:45:30.680Z,2461.00
2023-03-29T09:46:30.594Z,2454.00
2023-03-29T09:47:30.543Z,2453.00
2023-03-29T09:48:30.509Z,2453.00
2023-03-29T09:49:30.522Z,2443.00
2023-03-29T09:50:32.262Z,2441.00
2023-03-29T09:51:30.333Z,2436.00
2023-03-29T09:52:30.292Z,2430.00
2023-03-29T09:53:30.246Z,2430.00
2023-03-29T09:54:30.199Z,2426.00
2023-03-29T09:55:30.169Z,2422.00
2023-03-29T09:56:30.117Z,2421.00
2023-03-29T09:57:30.157Z,2420.00
2023-03-29T09:58:30.023Z,2418.00
2023-03-29T09:59:29.987Z,2413.00
2023-03-29T10:00:29.929Z,2406.00
2023-03-29T10:01:29.906Z,2400.00
2023-03-29T10:02:29.865Z,2393.00
2023-03-29T10:03:29.883Z,2389.00
2023-03-29T10:04:29.807Z,2385.00
2023-03-29T10:05:29.720Z,2383.00
2023-03-29T10:06:29.675Z,2384.00
2023-03-29T10:07:29.658Z,2377.00
2023-03-29T10:08:29.622Z,2373.00
2023-03-29T10:09:29.555Z,2369.00
2023-03-29T10:10:29.511Z,2364.00
2023-03-29T10:11:29.501Z,2360.00
2023-03-29T10:12:29.436Z,2359.00
2023-03-29T10:13:29.411Z,2354.00
2023-03-29T10:14:29.364Z,2343.00
2023-03-29T10:15:30.367Z,2340.00
2023-03-29T10:16:29.351Z,2337.00
2023-03-29T10:17:29.294Z,2334.00
2023-03-29T10:18:29.243Z,2329.00
2023-03-29T10:19:29.206Z,2327.00
2023-03-29T10:20:29.963Z,2328.00
2023-03-29T10:21:29.116Z,2326.00
2023-03-29T10:22:29.096Z,2325.00
2023-03-29T10:23:29.056Z,2325.00
2023-03-29T10:24:29.042Z,2318.00
2023-03-29T10:25:29.016Z,2315.00
2023-03-29T10:26:29.030Z,2311.00
2023-03-29T10:27:28.977Z,2312.00
2023-03-29T10:28:28.909Z,2306.00
2023-03-29T10:29:28.881Z,2307.00
2023-03-29T10:30:28.841Z,2304.00
2023-03-29T10:31:28.855Z,2297.00
2023-03-29T10:32:28.884Z,2291.00
2023-03-29T10:33:28.751Z,2288.00
2023-03-29T10:34:28.770Z,2289.00
2023-03-29T10:35:28.691Z,2286.00
2023-03-29T10:36:28.652Z,2278.00
2023-03-29T10:37:28.633Z,2275.00
2023-03-29T10:38:28.604Z,2267.00
2023-03-29T10:39:28.576Z,2264.00
2023-03-29T10:40:28.542Z,2260.00
2023-03-29T10:41:28.516Z,2257.00
2023-03-29T10:42:29.056Z,2256.00
2023-03-29T10:43:28.465Z,2247.00
2023-03-29T10:44:29.768Z,2244.00
2023-03-29T10:45:28.514Z,2237.00
2023-03-29T10:46:28.541Z,2231.00
2023-03-29T10:47:28.453Z,2225.00
2023-03-29T10:48:28.421Z,2222.00
2023-03-29T10:49:28.392Z,2221.00
2023-03-29T10:50:28.367Z,2219.00
2023-03-29T10:51:28.325Z,2218.00
2023-03-29T10:52:28.311Z,2211.00
2023-03-29T10:53:28.272Z,2205.00
2023-03-29T10:54:28.238Z,2203.00
2023-03-29T10:55:28.214Z,2197.00
2023-03-29T10:56:28.183Z,2189.00
2023-03-29T10:57:28.240Z,2192.00
2023-03-29T10:58:28.177Z,2190.00
2023-03-29T10:59:28.097Z,2185.00
2023-03-29T11:00:28.083Z,2180.00
2023-03-29T11:01:28.093Z,2173.00
2023-03-29T11:02:28.165Z,2169.00
2023-03-29T11:03:28.179Z,2165.00
2023-03-29T11:04:27.976Z,2162.00
2023-03-29T11:05:28.015Z,2158.00
2023-03-29T11:06:28.569Z,2156.00
2023-03-29T11:07:27.984Z,2157.00
2023-03-29T11:08:30.420Z,2159.00
2023-03-29T11:09:27.817Z,2156.00
2023-03-29T11:10:28.061Z,2150.00
2023-03-29T11:11:27.703Z,2145.00
2023-03-29T11:12:27.689Z,2138.00
2023-03-29T11:13:27.589Z,2131.00
2023-03-29T11:14:27.510Z,2126.00
2023-03-29T11:15:27.442Z,2123.00
2023-03-29T11:16:27.394Z,2116.00
2023-03-29T11:17:27.355Z,2112.00
2023-03-29T11:18:27.319Z,2104.00
2023-03-29T11:19:27.177Z,2099.00
2023-03-29T11:20:27.135Z,2096.00
2023-03-29T11:21:27.043Z,2093.00
2023-03-29T11:22:26.976Z,2094.00
2023-03-29T11:23:26.911Z,2094.00
2023-03-29T11:24:26.861Z,2090.00
2023-03-29T11:25:29.548Z,2086.00
2023-03-29T11:26:26.728Z,2084.00
2023-03-29T11:27:26.653Z,2079.00
2023-03-29T11:28:26.596Z,2079.00
2023-03-29T11:29:26.543Z,2075.00
2023-03-29T11:30:26.494Z,2069.00
2023-03-29T11:31:26.474Z,2063.00
2023-03-29T11:32:26.378Z,2060.00
2023-03-29T11:33:26.312Z,2056.00
2023-03-29T11:34:26.263Z,2050.00
2023-03-29T11:35:26.263Z,2046.00
2023-03-29T11:36:26.138Z,2045.00
2023-03-29T11:37:26.095Z,2041.00
2023-03-29T11:38:26.048Z,2044.00
2023-03-29T11:39:25.961Z,2037.00
2023-03-29T11:40:25.902Z,2037.00
2023-03-29T11:41:25.846Z,2035.00
2023-03-29T11:42:26.494Z,2027.00
2023-03-29T11:43:25.712Z,2029.00
2023-03-29T11:44:25.661Z,2028.00
2023-03-29T11:45:25.598Z,2028.00
2023-03-29T11:46:25.568Z,2023.00
2023-03-29T11:47:25.528Z,2015.00
2023-03-29T11:48:25.452Z,2016.00
2023-03-29T11:49:25.373Z,2011.00
2023-03-29T11:50:25.309Z,2003.00
2023-03-29T11:51:25.257Z,2003.00
2023-03-29T11:52:25.188Z,1997.00
2023-03-29T11:53:25.156Z,1995.00
2023-03-29T11:54:25.108Z,1992.00
2023-03-29T11:55:25.043Z,1989.00
2023-03-29T11:56:24.988Z,1989.00
2023-03-29T11:57:25.085Z,1987.00
2023-03-29T11:58:25.185Z,1983.00
2023-03-29T11:59:24.837Z,1981.00
2023-03-29T12:00:24.790Z,1979.00
2023-03-29T12:01:24.743Z,1975.00
2023-03-29T12:02:24.847Z,1974.00
2023-03-29T12:03:24.763Z,1966.00
2023-03-29T12:04:24.898Z,1959.00
2023-03-29T12:05:24.544Z,1952.00
2023-03-29T12:06:24.495Z,1952.00
2023-03-29T12:07:24.467Z,1945.00
2023-03-29T12:08:24.411Z,1939.00
2023-03-29T12:09:24.442Z,1943.00
2023-03-29T12:10:24.327Z,1939.00
2023-03-29T12:11:24.286Z,1940.00
2023-03-29T12:12:24.232Z,1941.00
2023-03-29T12:13:24.204Z,1938.00
2023-03-29T12:14:26.069Z,1938.00
2023-03-29T12:15:24.126Z,1930.00
2023-03-29T12:16:24.137Z,1925.00